METAR Data
IDs: Format: Raw Decoded Include TAF

Data at: 0911 UTC 20 Sep 2018

PAEG 200853Z AUTO 00000KT 10SM OVC060 06/01 A3015 RMK AO2 SLP215 T00560011 401780039 50001 TSNO
PAEG 200753Z AUTO 00000KT 10SM OVC060 07/02 A3015 RMK AO2 SLP215 T00670017 TSNO
PAEG 200653Z AUTO 00000KT 10SM BKN060 07/02 A3015 RMK AO2 SLP214 T00720022 TSNO
PAEG 200553Z AUTO 00000KT 10SM OVC055 08/03 A3015 RMK AO2 SLP214 T00830028 10156 20083 51003 TSNO
PAEG 200453Z AUTO 00000KT 10SM OVC060 09/02 A3014 RMK AO2 SLP214 T00890022 TSNO
PAEG 200353Z AUTO 00000KT 10SM SCT095 BKN110 10/03 A3014 RMK AO2 SLP213 T01000033 TSNO
PAEG 200253Z AUTO 00000KT 10SM OVC100 12/03 A3014 RMK AO2 SLP211 T01220033 53000 TSNO
PAEG 200153Z AUTO 00000KT 10SM SCT055 BKN075 OVC110 13/02 A3013 RMK AO2 SLP208 T01330022 TSNO
PAEG 200053Z AUTO 08004KT 10SM SCT085 15/02 A3013 RMK AO2 SLP208 T01500022 TSNO
PAEG 192353Z AUTO 00000KT 10SM SCT070 SCT085 16/02 A3013 RMK AO2 SLP209 T01560022 10178 20089 56010 TSNO
PAEG 192253Z AUTO 00000KT 10SM BKN080 OVC095 17/01 A3014 RMK AO2 SLP211 T01670011 TSNO
PAEG 192153Z AUTO 00000KT 10SM FEW060 FEW080 16/02 A3015 RMK AO2 SLP215 T01560017 TSNO
PAEG 192053Z AUTO 00000KT 10SM BKN095 13/02 A3017 RMK AO2 SLP220 T01330017 58007 TSNO
PAEG 191953Z AUTO 00000KT 10SM OVC085 12/02 A3017 RMK AO2 SLP223 T01170017 TSNO
PAEG 191853Z AUTO 00000KT 10SM FEW070 SCT090 11/02 A3018 RMK AO2 SLP226 T01060022 TSNO
PAEG 191753Z AUTO 00000KT 10SM BKN070 OVC095 09/01 A3019 RMK AO2 SLP228 T00890011 10089 20039 50000 TSNO
PAEG 191653Z AUTO 00000KT 10SM OVC070 07/01 A3019 RMK AO2 SLP231 T00670011 TSNO
PAEG 191553Z AUTO 00000KT 10SM OVC070 04/M01 A3019 RMK AO2 SLP230 T00441006 TSNO
PAEG 191453Z AUTO 00000KT 10SM OVC070 06/M01 A3019 RMK AO2 SLP227 T00561006 50001 TSNO $
PAEG 191353Z AUTO 00000KT 10SM OVC075 05/M01 A3019 RMK AO2 SLP227 T00501006 TSNO $
PAEG 191253Z AUTO 00000KT 10SM OVC075 05/M01 A3018 RMK AO2 SLP226 T00501006 TSNO $
PAEG 191153Z AUTO 00000KT 10SM OVC075 05/M01 A3018 RMK AO2 SLP226 T00501006 10078 20039 51004 TSNO $
PAEG 191053Z AUTO 00000KT 10SM FEW060 OVC080 05/M01 A3018 RMK AO2 SLPNO T00501006 TSNO $
PAEG 190953Z AUTO 00000KT 10SM OVC080 05/M01 A3018 RMK AO2 SLP225 T00501011 TSNO $
PAEG 190853Z AUTO 00000KT 10SM OVC080 07/00 A3017 RMK AO2 SLP223 T00670000 401721039 51004 TSNO $
PAEG 190753Z AUTO 00000KT 10SM OVC070 07/00 A3017 RMK AO2 SLP224 T00670000 TSNO $
PAEG 190653Z AUTO 00000KT 10SM OVC075 07/01 A3016 RMK AO2 SLP222 T00670006 TSNO $
PAEG 190553Z AUTO 00000KT 10SM OVC080 07/00 A3016 RMK AO2 SLP221 T00720000 10172 20067 51006 TSNO $
PAEG 190453Z AUTO 00000KT 10SM OVC080 07/M01 A3016 RMK AO2 SLP221 T00721006 TSNO $
PAEG 190353Z AUTO 00000KT 10SM BKN080 08/M01 A3015 RMK AO2 SLP220 T00781006 TSNO $
PAEG 190253Z AUTO 31003KT 10SM BKN080 14/00 A3014 RMK AO2 SLP215 T01440000 55001 TSNO $
PAEG 190153Z AUTO 36006KT 10SM OVC080 17/M01 A3014 RMK AO2 SLP212 T01671006 TSNO $
PAEG 190053Z AUTO 04004KT 10SM CLR 16/00 A3014 RMK AO2 SLP212 T01560000 TSNO $
PAEG 182353Z AUTO 02003KT 10SM CLR 15/01 A3015 RMK AO2 SLP215 T01500006 10156 20006 TSNO $
PAEG 182153Z AUTO 00000KT 10SM CLR 13/M01 A3017 RMK AO2 SLP225 T01281006 TSNO